Terminal Aerodrome Forecast
Issued by NWS

Home | Current Version | Previous Version | Text Only | Print | Product List | Glossary On
Versions: 1 2 3 4 5 6 7 8 9 10 11 12 13 14 15 16
000
FTUS42 KTBW 201720
TAFLAL
TAF
KLAL 201720Z 2018/2118 02003KT P6SM BKN030
     FM201900 03005KT P6SM VCTS SCT035CB BKN050
      TEMPO 2019/2022 3SM +TSRA BKN025CB
     FM202200 06006KT P6SM SHRA VCTS BKN050CB BKN150
     FM210200 00000KT P6SM FEW150 SCT250
     FM211500 25004KT P6SM VCTS SCT030CB SCT250=

USA.gov is the U.S. government's official web portal to all federal, state and local government web resources and services.